Time;durP1;ratioP1;P1;durP2;ratioP2;P2;SDS_P1;SDS_P2;PMS_P1;PMS_P2;Temp;Humidity;BMP_temperature;BMP_pressure;BME280_temperature;BME280_humidity;BME280_pressure;Samples;Min_cycle;Max_cycle;Signal;HPM_P1;HPM_P2
2021/03/06 00:01:16;;;;;;;9.53;6.17;;;-1.70;99.90;;;;;;4974606;28;20357;-63
2021/03/06 00:03:41;;;;;;;12.10;6.67;;;-1.70;99.90;;;;;;4992011;28;20631;-64
2021/03/06 00:06:07;;;;;;;7.90;5.97;;;-1.70;99.90;;;;;;5008964;28;20186;-64
2021/03/06 00:08:33;;;;;;;8.40;6.73;;;-1.70;99.90;;;;;;5015392;28;20582;-65
2021/03/06 00:10:58;;;;;;;119.43;40.73;;;-1.70;99.90;;;;;;4999881;28;20599;-64
2021/03/06 00:13:24;;;;;;;88.67;31.23;;;-1.70;99.90;;;;;;4995894;28;20718;-64
2021/03/06 00:15:50;;;;;;;26.60;12.30;;;-1.70;99.90;;;;;;5008947;28;20184;-64
2021/03/06 00:18:16;;;;;;;21.53;10.47;;;-1.70;99.90;;;;;;5004869;28;20176;-64
2021/03/06 00:20:41;;;;;;;12.50;7.63;;;-1.70;99.90;;;;;;4995162;28;20682;-64
2021/03/06 00:23:07;;;;;;;9.83;7.27;;;-1.70;99.90;;;;;;5004349;28;20645;-64
2021/03/06 00:25:33;;;;;;;10.03;7.20;;;-1.70;99.90;;;;;;5015459;28;20168;-64
2021/03/06 00:27:58;;;;;;;9.27;7.17;;;-1.80;99.90;;;;;;4990904;28;20181;-63
2021/03/06 00:30:25;;;;;;;10.53;7.33;;;-1.70;99.90;;;;;;4995253;28;20224;-64
2021/03/06 00:32:51;;;;;;;12.07;8.00;;;-1.70;99.90;;;;;;5000618;28;20219;-64
2021/03/06 00:35:16;;;;;;;11.27;7.13;;;-1.70;99.90;;;;;;5015262;28;20180;-64
2021/03/06 00:37:42;;;;;;;11.80;8.30;;;-1.60;99.90;;;;;;5012128;28;20220;-64
2021/03/06 00:40:10;;;;;;;8.37;6.70;;;-1.60;99.90;;;;;;4994954;28;20219;-65
2021/03/06 00:42:36;;;;;;;7.57;6.80;;;-1.60;99.90;;;;;;5008795;28;20196;-64
2021/03/06 00:45:03;;;;;;;9.30;6.57;;;-1.60;99.90;;;;;;5015042;28;20175;-63
2021/03/06 00:47:28;;;;;;;11.10;6.97;;;-1.60;99.90;;;;;;4995812;28;20184;-64
2021/03/06 00:49:54;;;;;;;10.17;6.90;;;-1.60;99.90;;;;;;4995079;28;20633;-65
2021/03/06 00:52:20;;;;;;;15.97;7.37;;;-1.50;99.90;;;;;;5011452;28;20605;-64
2021/03/06 00:54:45;;;;;;;10.60;7.27;;;-1.50;99.90;;;;;;5014868;28;20182;-64
2021/03/06 00:57:11;;;;;;;9.00;6.63;;;-1.50;99.90;;;;;;4999521;28;20184;-63
2021/03/06 00:59:36;;;;;;;8.67;6.50;;;-1.60;99.90;;;;;;4995202;28;20200;-64
2021/03/06 01:02:02;;;;;;;9.43;7.20;;;-1.60;99.90;;;;;;5008333;28;20251;-64
2021/03/06 01:04:28;;;;;;;9.53;6.57;;;-1.60;99.90;;;;;;5014955;28;20493;-64
2021/03/06 01:06:53;;;;;;;10.47;6.80;;;-1.30;99.90;;;;;;5002566;28;20223;-64
2021/03/06 01:09:19;;;;;;;10.23;7.10;;;-1.70;99.90;;;;;;4995102;28;20201;-64
2021/03/06 01:11:44;;;;;;;8.53;6.60;;;-1.70;99.90;;;;;;4986599;28;20184;-64
2021/03/06 01:14:11;;;;;;;7.13;6.10;;;-1.70;99.90;;;;;;5007588;28;20185;-64
2021/03/06 01:16:37;;;;;;;12.40;6.90;;;-1.70;99.90;;;;;;4994662;28;20586;-65
2021/03/06 01:19:02;;;;;;;7.87;6.90;;;-1.70;99.90;;;;;;4998695;28;20303;-63
2021/03/06 01:21:28;;;;;;;10.23;8.10;;;-1.80;99.90;;;;;;5003113;28;20315;-64
2021/03/06 01:23:54;;;;;;;9.60;6.77;;;-1.80;99.90;;;;;;4998096;28;20180;-63
2021/03/06 01:26:19;;;;;;;10.83;7.97;;;-1.90;99.90;;;;;;5014299;28;20184;-63
2021/03/06 01:28:45;;;;;;;12.30;8.50;;;-1.90;99.90;;;;;;5012131;28;20172;-63
2021/03/06 01:31:11;;;;;;;9.20;7.13;;;-1.90;99.90;;;;;;4993964;28;20681;-63
2021/03/06 01:33:36;;;;;;;11.80;7.73;;;-1.90;99.90;;;;;;4994586;28;20659;-64
2021/03/06 01:36:02;;;;;;;8.30;6.97;;;-1.90;99.90;;;;;;4994432;28;20173;-64
2021/03/06 01:38:27;;;;;;;12.50;7.33;;;-2.10;99.90;;;;;;4994635;28;20176;-63
2021/03/06 01:40:53;;;;;;;11.30;7.70;;;-2.10;99.90;;;;;;5011532;28;20296;-64
2021/03/06 01:43:20;;;;;;;9.77;7.47;;;-2.00;99.90;;;;;;5002463;28;20236;-62
2021/03/06 01:45:46;;;;;;;11.43;7.70;;;-2.00;99.90;;;;;;5004396;28;20203;-64
2021/03/06 01:48:12;;;;;;;9.23;7.23;;;-2.00;99.90;;;;;;5013839;28;20199;-62
2021/03/06 01:50:40;;;;;;;12.87;7.67;;;-2.00;99.90;;;;;;5004336;28;20271;-64
2021/03/06 01:53:08;;;;;;;9.63;6.60;;;-2.10;99.90;;;;;;4994029;28;20222;-63
2021/03/06 01:55:37;;;;;;;11.80;7.80;;;-2.10;99.90;;;;;;5001621;28;20279;-63
2021/03/06 01:58:04;;;;;;;9.63;7.20;;;-2.10;99.90;;;;;;5013687;28;20198;-63
2021/03/06 02:00:30;;;;;;;9.10;7.07;;;-2.10;99.90;;;;;;5006577;28;20208;-63
2021/03/06 02:02:57;;;;;;;10.67;7.73;;;-2.10;99.90;;;;;;4993846;28;20211;-63
2021/03/06 02:05:22;;;;;;;12.90;6.83;;;-2.10;99.90;;;;;;4998724;28;20615;-63
2021/03/06 02:07:48;;;;;;;8.33;7.53;;;-2.10;99.90;;;;;;5013506;28;20259;-63
2021/03/06 02:10:15;;;;;;;16.30;8.50;;;-2.10;99.90;;;;;;5007962;28;20193;-63
2021/03/06 02:12:59;;;;;;;10.67;7.47;;;-2.10;99.90;;;;;;4993771;28;20168;-64
2021/03/06 02:15:43;;;;;;;10.13;7.60;;;-2.10;99.90;;;;;;4999035;28;20184;-64
2021/03/06 02:18:23;;;;;;;7.93;7.03;;;-2.20;99.90;;;;;;5013298;28;20175;-63
2021/03/06 02:21:10;;;;;;;10.77;8.30;;;-2.30;99.90;;;;;;5003929;28;20628;-63
2021/03/06 02:23:42;;;;;;;9.50;7.77;;;-2.30;99.90;;;;;;4993760;28;20276;-63
2021/03/06 02:26:44;;;;;;;10.87;7.87;;;-2.30;99.90;;;;;;4993886;28;20188;-63
2021/03/06 02:29:29;;;;;;;8.77;7.10;;;-2.30;99.90;;;;;;4993605;28;20257;-66
2021/03/06 02:31:56;;;;;;;10.97;7.70;;;-2.40;99.90;;;;;;5008751;28;20215;-64
2021/03/06 02:34:29;;;;;;;10.10;7.27;;;-2.50;99.90;;;;;;5013036;28;20168;-66
2021/03/06 02:37:01;;;;;;;10.90;7.47;;;-2.50;99.90;;;;;;4996883;28;20243;-66
2021/03/06 02:39:28;;;;;;;10.43;6.70;;;-2.50;99.90;;;;;;5004163;28;20258;-65
2021/03/06 02:41:56;;;;;;;9.60;6.50;;;-2.50;99.90;;;;;;5005791;28;20207;-65
2021/03/06 02:44:26;;;;;;;8.23;7.40;;;-2.50;99.90;;;;;;4993226;28;20165;-66
2021/03/06 02:46:51;;;;;;;11.47;7.37;;;-2.60;99.90;;;;;;4998463;28;20271;-64
2021/03/06 02:49:17;;;;;;;10.27;7.77;;;-2.60;99.90;;;;;;5012741;28;20267;-66
2021/03/06 02:51:44;;;;;;;11.77;7.77;;;-2.60;99.90;;;;;;5007997;28;20704;-65
2021/03/06 02:54:11;;;;;;;10.70;8.30;;;-2.60;99.90;;;;;;4992876;28;20712;-66
2021/03/06 02:56:37;;;;;;;12.37;8.60;;;-2.60;99.90;;;;;;4995384;28;20185;-65
2021/03/06 02:59:14;;;;;;;13.20;7.87;;;-2.70;99.90;;;;;;5012341;28;20228;-66
2021/03/06 03:01:43;;;;;;;13.43;8.67;;;-2.60;99.90;;;;;;5009806;28;20200;-65
2021/03/06 03:04:54;;;;;;;13.67;8.63;;;-2.60;99.90;;;;;;4992777;28;20616;-65
2021/03/06 03:07:30;;;;;;;14.30;8.17;;;-2.60;99.90;;;;;;4941775;28;20180;-65
2021/03/06 03:10:01;;;;;;;10.60;6.90;;;-2.50;99.90;;;;;;4992471;28;20594;-65
2021/03/06 03:12:33;;;;;;;11.10;7.70;;;-2.60;99.90;;;;;;5003481;28;20184;-65
2021/03/06 03:15:08;;;;;;;10.10;7.73;;;-2.50;99.90;;;;;;5011897;28;20167;-65
2021/03/06 03:17:44;;;;;;;12.03;9.13;;;-2.60;99.90;;;;;;5000779;28;20523;-65
2021/03/06 03:20:31;;;;;;;9.93;8.10;;;-2.60;99.90;;;;;;4992013;28;20200;-65
2021/03/06 03:23:06;;;;;;;10.73;8.27;;;-2.60;99.90;;;;;;5006221;28;20246;-65
2021/03/06 03:25:34;;;;;;;12.47;8.83;;;-2.60;99.90;;;;;;5012306;28;20164;-65
2021/03/06 03:28:02;;;;;;;14.33;8.77;;;-2.70;99.90;;;;;;4997800;28;20212;-64
2021/03/06 03:30:28;;;;;;;11.90;8.83;;;-2.80;99.90;;;;;;4991675;28;20220;-65
2021/03/06 03:32:56;;;;;;;13.47;8.60;;;-2.80;99.90;;;;;;5004137;28;20191;-65
2021/03/06 03:35:24;;;;;;;13.77;8.30;;;-2.80;99.90;;;;;;5002664;28;20180;-65
2021/03/06 03:37:51;;;;;;;12.30;8.70;;;-2.90;99.90;;;;;;4992313;28;20173;-66
2021/03/06 03:40:19;;;;;;;10.27;8.03;;;-2.90;99.90;;;;;;4999875;28;20208;-65
2021/03/06 03:42:46;;;;;;;11.13;8.63;;;-2.90;99.90;;;;;;5011252;28;20168;-66
2021/03/06 03:45:13;;;;;;;15.63;8.47;;;-2.90;99.90;;;;;;5004379;28;20176;-65
2021/03/06 03:47:41;;;;;;;9.53;7.67;;;-2.90;99.90;;;;;;4992245;28;20168;-65
2021/03/06 03:50:12;;;;;;;11.57;8.60;;;-2.90;99.90;;;;;;4997251;28;20251;-65
2021/03/06 03:52:51;;;;;;;12.77;8.90;;;-2.90;99.90;;;;;;5011785;28;20182;-64
2021/03/06 03:55:17;;;;;;;14.47;9.87;;;-2.90;99.90;;;;;;5004951;28;20665;-65
2021/03/06 03:57:45;;;;;;;12.07;8.87;;;-2.90;99.90;;;;;;5005156;28;20208;-65
2021/03/06 04:00:12;;;;;;;12.63;8.60;;;-2.90;99.90;;;;;;5005591;28;20211;-65
2021/03/06 04:02:38;;;;;;;15.70;9.30;;;-2.90;99.90;;;;;;4993918;28;20181;-64
2021/03/06 04:05:06;;;;;;;9.53;8.37;;;-3.00;99.90;;;;;;5012331;28;20239;-64
2021/03/06 04:07:42;;;;;;;11.23;9.53;;;-3.00;99.90;;;;;;5011248;28;20168;-65
2021/03/06 04:10:10;;;;;;;10.50;8.83;;;-3.00;99.90;;;;;;4991422;28;20239;-65
2021/03/06 04:12:36;;;;;;;10.00;8.80;;;-3.00;99.90;;;;;;4992180;28;20182;-65
2021/03/06 04:15:03;;;;;;;14.00;9.23;;;-3.10;99.90;;;;;;5011120;28;20176;-65
2021/03/06 04:17:28;;;;;;;12.10;8.67;;;-3.10;99.90;;;;;;5010856;28;20242;-65
2021/03/06 04:19:54;;;;;;;13.30;8.90;;;-3.10;99.90;;;;;;4991893;28;20208;-65
2021/03/06 04:22:19;;;;;;;13.03;9.13;;;-3.10;99.90;;;;;;4991911;28;20169;-64
2021/03/06 04:24:45;;;;;;;13.20;8.77;;;-3.10;99.90;;;;;;5008602;28;20227;-64
2021/03/06 04:27:10;;;;;;;13.63;9.37;;;-3.10;99.90;;;;;;5011391;28;20175;-65
2021/03/06 04:29:36;;;;;;;14.43;9.67;;;-3.20;99.90;;;;;;4995667;28;20227;-64
2021/03/06 04:32:02;;;;;;;10.67;9.33;;;-3.20;99.90;;;;;;5002299;28;20646;-65
2021/03/06 04:34:27;;;;;;;14.70;10.73;;;-3.20;99.90;;;;;;5011451;28;20177;-65
2021/03/06 04:36:53;;;;;;;11.80;8.77;;;-3.20;99.90;;;;;;5000761;28;20184;-65
2021/03/06 04:39:19;;;;;;;14.43;9.70;;;-3.30;99.90;;;;;;4991650;28;20231;-65
2021/03/06 04:41:44;;;;;;;14.17;9.80;;;-3.30;99.90;;;;;;5007050;28;20184;-64
2021/03/06 04:44:12;;;;;;;15.23;10.63;;;-3.30;99.90;;;;;;5011409;28;20177;-65
2021/03/06 04:46:37;;;;;;;14.50;9.07;;;-3.30;99.90;;;;;;4996977;28;20181;-65
2021/03/06 04:49:03;;;;;;;14.97;10.33;;;-3.30;99.90;;;;;;4974316;28;20197;-65
2021/03/06 04:51:29;;;;;;;11.57;9.73;;;-3.30;99.90;;;;;;5003162;28;20176;-65
2021/03/06 04:53:56;;;;;;;13.77;9.70;;;-3.30;99.90;;;;;;5014141;28;20251;-65
2021/03/06 04:56:22;;;;;;;15.27;8.97;;;-3.30;99.90;;;;;;5003327;28;20184;-65
2021/03/06 04:58:48;;;;;;;15.10;10.07;;;-3.20;99.90;;;;;;5012679;28;20267;-65
2021/03/06 05:01:13;;;;;;;13.93;10.40;;;-3.20;99.90;;;;;;5004801;28;20299;-64
2021/03/06 05:03:39;;;;;;;11.13;9.67;;;-3.20;99.90;;;;;;4995255;28;20177;-64
2021/03/06 05:06:05;;;;;;;13.53;10.20;;;-3.30;99.90;;;;;;5002490;28;20179;-64
2021/03/06 05:08:30;;;;;;;16.83;11.57;;;-3.30;99.90;;;;;;5014716;28;20276;-64
2021/03/06 05:10:56;;;;;;;13.53;10.37;;;-3.30;99.90;;;;;;5007528;28;20546;-64
2021/03/06 05:13:21;;;;;;;15.07;10.43;;;-3.30;99.90;;;;;;4994819;28;20599;-64
2021/03/06 05:15:47;;;;;;;15.77;10.17;;;-3.30;99.90;;;;;;4998958;28;20175;-63
2021/03/06 05:18:12;;;;;;;18.20;11.03;;;-3.30;99.90;;;;;;5014261;28;20715;-65
2021/03/06 05:20:38;;;;;;;13.50;9.57;;;-3.30;99.90;;;;;;4999544;28;20733;-64
2021/03/06 05:23:04;;;;;;;16.67;11.03;;;-3.30;99.90;;;;;;4994583;28;20204;-65
2021/03/06 05:25:30;;;;;;;11.77;9.97;;;-3.40;99.90;;;;;;5007066;28;20172;-64
2021/03/06 05:27:55;;;;;;;19.33;11.53;;;-3.30;99.90;;;;;;5014363;28;20263;-64
2021/03/06 05:30:22;;;;;;;14.53;11.03;;;-3.40;99.90;;;;;;5002762;28;20242;-64
2021/03/06 05:32:48;;;;;;;20.30;11.63;;;-3.40;99.90;;;;;;4994454;28;20180;-63
2021/03/06 05:35:13;;;;;;;17.93;12.17;;;-3.40;99.90;;;;;;5003469;28;20184;-63
2021/03/06 05:37:39;;;;;;;14.83;11.00;;;-3.40;99.90;;;;;;5014521;28;20180;-65
2021/03/06 05:40:06;;;;;;;18.63;12.27;;;-3.40;99.90;;;;;;5005769;28;20201;-64
2021/03/06 05:42:34;;;;;;;19.43;11.93;;;-3.40;99.90;;;;;;4994629;28;20670;-65
2021/03/06 05:45:00;;;;;;;14.63;11.67;;;-3.50;99.90;;;;;;5000205;28;20164;-65
2021/03/06 05:47:26;;;;;;;19.50;10.57;;;-3.60;99.90;;;;;;5010768;28;20216;-63
2021/03/06 05:49:53;;;;;;;14.23;10.50;;;-3.60;99.90;;;;;;4993940;28;20235;-63
2021/03/06 05:52:20;;;;;;;15.37;10.93;;;-3.60;99.90;;;;;;4994839;28;20191;-65
2021/03/06 05:54:48;;;;;;;14.17;10.50;;;-3.50;99.90;;;;;;5010372;28;20176;-64
2021/03/06 05:57:16;;;;;;;12.27;9.53;;;-3.50;99.90;;;;;;5012993;28;20230;-64
2021/03/06 05:59:44;;;;;;;15.47;9.63;;;-3.50;99.90;;;;;;4993813;28;20197;-64
2021/03/06 06:02:11;;;;;;;15.67;10.93;;;-3.40;99.90;;;;;;4993782;28;20195;-65
2021/03/06 06:04:38;;;;;;;17.70;11.53;;;-3.50;99.90;;;;;;5012561;28;20180;-64
2021/03/06 06:07:04;;;;;;;14.67;10.80;;;-3.50;99.90;;;;;;5013425;28;20669;-65
2021/03/06 06:09:29;;;;;;;15.30;11.07;;;-3.50;99.90;;;;;;4995851;28;20201;-65
2021/03/06 06:11:55;;;;;;;14.13;10.10;;;-3.50;99.90;;;;;;4993007;28;20200;-65
2021/03/06 06:14:21;;;;;;;14.90;10.47;;;-3.50;99.90;;;;;;5009294;28;20172;-65
2021/03/06 06:16:47;;;;;;;18.33;12.17;;;-3.50;99.90;;;;;;5013341;28;20172;-64
2021/03/06 06:19:13;;;;;;;16.77;11.07;;;-3.60;99.90;;;;;;4998625;28;20228;-64
2021/03/06 06:21:38;;;;;;;14.53;10.70;;;-3.50;99.90;;;;;;4993494;28;20201;-65
2021/03/06 06:24:09;;;;;;;14.50;11.37;;;-3.50;99.90;;;;;;5005657;28;20184;-65
2021/03/06 06:26:35;;;;;;;15.53;11.87;;;-3.50;99.90;;;;;;5013327;28;20177;-64
2021/03/06 06:29:01;;;;;;;15.73;11.53;;;-3.40;99.90;;;;;;5000370;28;20280;-64
2021/03/06 06:31:27;;;;;;;32.20;14.00;;;-3.30;99.90;;;;;;4992630;28;20272;-64
2021/03/06 06:33:53;;;;;;;16.57;11.43;;;-3.30;99.90;;;;;;5003922;28;20187;-65
2021/03/06 06:36:33;;;;;;;18.30;13.27;;;-3.30;99.90;;;;;;5013165;28;20172;-65
2021/03/06 06:38:59;;;;;;;18.17;13.03;;;-3.20;99.90;;;;;;5001516;28;20692;-65
2021/03/06 06:41:44;;;;;;;24.90;14.90;;;-3.10;99.90;;;;;;5006895;28;20204;-64
2021/03/06 06:44:10;;;;;;;20.33;13.70;;;-3.00;99.90;;;;;;5000408;28;20334;-63
2021/03/06 06:46:36;;;;;;;25.17;14.63;;;-2.90;99.90;;;;;;4999161;28;20267;-64
2021/03/06 06:49:02;;;;;;;18.03;13.00;;;-2.90;99.90;;;;;;5012313;28;20184;-63
2021/03/06 06:51:27;;;;;;;18.47;13.77;;;-2.80;99.90;;;;;;5006462;28;20555;-65
2021/03/06 06:54:16;;;;;;;21.97;14.37;;;-2.70;99.90;;;;;;4992998;28;20172;-64
2021/03/06 06:56:41;;;;;;;20.40;13.40;;;-2.60;99.90;;;;;;4980418;28;20345;-64
2021/03/06 06:59:08;;;;;;;21.30;15.33;;;-2.40;99.90;;;;;;4992821;28;20300;-63
2021/03/06 07:01:36;;;;;;;26.00;16.30;;;-2.30;99.90;;;;;;4995426;28;20579;-64
2021/03/06 07:04:05;;;;;;;23.23;15.47;;;-2.30;99.90;;;;;;4992472;28;20172;-64
2021/03/06 07:06:31;;;;;;;27.53;16.77;;;-2.20;99.90;;;;;;5012017;28;20234;-65
2021/03/06 07:09:11;;;;;;;23.30;15.63;;;-2.10;99.90;;;;;;5011467;28;20195;-65
2021/03/06 07:11:38;;;;;;;34.53;19.23;;;-1.90;99.90;;;;;;4992758;28;20208;-65
2021/03/06 07:14:04;;;;;;;34.47;20.63;;;-1.80;99.90;;;;;;4992958;28;20165;-65
2021/03/06 07:16:59;;;;;;;35.27;23.10;;;-1.60;99.90;;;;;;5009294;28;20191;-65
2021/03/06 07:19:26;;;;;;;42.50;26.73;;;-1.10;99.90;;;;;;5011721;28;20662;-64
2021/03/06 07:21:52;;;;;;;30.50;21.23;;;-0.40;99.90;;;;;;4992413;28;20252;-66
2021/03/06 07:24:18;;;;;;;24.77;18.30;;;0.20;99.90;;;;;;4998627;28;20255;-65
2021/03/06 07:26:45;;;;;;;19.97;16.67;;;0.90;99.90;;;;;;5012326;28;20251;-65
2021/03/06 07:29:11;;;;;;;15.43;13.33;;;1.70;99.90;;;;;;5007056;28;20566;-64
2021/03/06 07:31:38;;;;;;;14.60;11.10;;;2.50;99.90;;;;;;4991761;28;20188;-66
2021/03/06 07:34:11;;;;;;;11.43;8.63;;;3.30;99.90;;;;;;4995354;28;20184;-65
2021/03/06 07:36:37;;;;;;;9.37;7.00;;;4.00;99.90;;;;;;5012264;28;20832;-65
2021/03/06 07:39:06;;;;;;;8.63;6.10;;;4.50;99.90;;;;;;5002216;28;20282;-65
2021/03/06 07:41:40;;;;;;;8.67;6.57;;;4.90;99.90;;;;;;4993221;28;20212;-65
2021/03/06 07:44:07;;;;;;;6.70;6.00;;;5.20;99.90;;;;;;4992585;28;20211;-64
2021/03/06 07:46:37;;;;;;;7.20;6.10;;;5.10;99.90;;;;;;4983183;28;20176;-65
2021/03/06 07:49:12;;;;;;;7.17;5.97;;;5.00;99.90;;;;;;5011723;28;20228;-64
2021/03/06 07:51:46;;;;;;;11.17;6.63;;;5.00;99.90;;;;;;5003197;28;20275;-65
2021/03/06 07:54:14;;;;;;;10.00;6.20;;;5.00;99.90;;;;;;4992135;28;20255;-65
2021/03/06 07:56:42;;;;;;;7.63;5.90;;;5.10;99.90;;;;;;4993259;28;20705;-64
2021/03/06 07:59:08;;;;;;;11.53;6.33;;;5.10;99.90;;;;;;4991959;28;20200;-65
2021/03/06 08:01:35;;;;;;;10.43;5.83;;;5.10;99.90;;;;;;4993380;28;20207;-65
2021/03/06 08:04:03;;;;;;;6.03;5.43;;;5.20;99.90;;;;;;4992674;28;20227;-65
2021/03/06 08:06:33;;;;;;;8.37;5.87;;;5.20;99.90;;;;;;4997549;28;20206;-65
2021/03/06 08:08:58;;;;;;;7.70;5.97;;;5.20;99.90;;;;;;5011689;28;20230;-66
2021/03/06 08:11:33;;;;;;;9.90;6.20;;;5.10;99.90;;;;;;5000124;28;20233;-65
2021/03/06 08:14:01;;;;;;;8.90;6.60;;;5.10;99.90;;;;;;4992264;28;20180;-65
2021/03/06 08:16:27;;;;;;;8.87;5.83;;;5.20;99.90;;;;;;5003168;28;20230;-66
2021/03/06 08:18:57;;;;;;;11.53;6.27;;;5.30;99.90;;;;;;5011780;28;20700;-66
2021/03/06 08:21:29;;;;;;;9.17;5.97;;;5.40;99.90;;;;;;5001282;28;20204;-66
2021/03/06 08:24:13;;;;;;;6.97;5.30;;;5.60;99.90;;;;;;4992062;28;20785;-64
2021/03/06 08:26:42;;;;;;;8.43;6.27;;;5.80;99.90;;;;;;5003474;28;20230;-65
2021/03/06 08:29:23;;;;;;;8.37;5.53;;;5.80;99.90;;;;;;5014927;28;20196;-65
2021/03/06 08:32:04;;;;;;;9.37;6.07;;;6.30;99.90;;;;;;5032197;22;20596;-64
2021/03/06 08:34:34;;;;;;;7.83;5.87;;;6.80;99.90;;;;;;5017154;28;20183;-64
2021/03/06 08:37:15;;;;;;;10.27;5.77;;;7.30;99.90;;;;;;5033261;28;20186;-64
2021/03/06 08:39:40;;;;;;;7.20;5.80;;;7.60;99.90;;;;;;5033616;28;20708;-64
2021/03/06 08:42:06;;;;;;;9.03;5.73;;;7.80;99.90;;;;;;5014480;28;20279;-64
2021/03/06 08:44:33;;;;;;;7.83;5.37;;;8.10;99.90;;;;;;5015006;28;20168;-64
2021/03/06 08:46:58;;;;;;;8.33;5.53;;;8.10;99.90;;;;;;5014078;28;20180;-64
2021/03/06 08:49:24;;;;;;;9.03;5.57;;;8.50;99.90;;;;;;5014295;28;20175;-64
2021/03/06 08:51:52;;;;;;;8.90;4.90;;;9.10;99.90;;;;;;5015726;28;20291;-64
2021/03/06 08:54:20;;;;;;;9.23;5.73;;;9.30;99.90;;;;;;5015004;28;20171;-64
2021/03/06 08:56:45;;;;;;;8.63;4.97;;;9.50;99.90;;;;;;5013072;28;20176;-65
2021/03/06 08:59:11;;;;;;;6.17;5.07;;;9.70;99.90;;;;;;5034477;28;20176;-65
2021/03/06 09:01:36;;;;;;;8.67;5.80;;;10.10;99.90;;;;;;5019776;28;20212;-63
2021/03/06 09:04:02;;;;;;;5.83;5.07;;;10.60;99.90;;;;;;5014817;28;20173;-65
2021/03/06 09:06:39;;;;;;;9.53;5.30;;;10.70;99.90;;;;;;5028426;28;20187;-64
2021/03/06 09:09:08;;;;;;;5.93;4.53;;;11.00;99.90;;;;;;5034414;28;20240;-65
2021/03/06 09:11:34;;;;;;;8.60;4.70;;;11.40;99.90;;;;;;5015812;28;20211;-65
2021/03/06 09:14:00;;;;;;;5.33;4.17;;;11.50;99.90;;;;;;5014595;28;20172;-65
2021/03/06 09:16:25;;;;;;;7.03;4.23;;;11.70;99.90;;;;;;5016755;28;20665;-62
2021/03/06 09:18:51;;;;;;;5.53;4.20;;;12.00;99.90;;;;;;5034326;28;20179;-65
2021/03/06 09:21:25;;;;;;;8.37;4.40;;;12.00;99.90;;;;;;5017861;28;20273;-63
2021/03/06 09:23:54;;;;;;;5.03;4.30;;;12.20;99.90;;;;;;5014266;28;20176;-64
2021/03/06 09:26:23;;;;;;;6.37;4.10;;;12.30;99.90;;;;;;5029342;28;20183;-64
2021/03/06 09:28:52;;;;;;;6.23;3.83;;;12.50;99.90;;;;;;5034022;28;20233;-64
2021/03/06 09:31:24;;;;;;;7.90;4.23;;;11.90;99.90;;;;;;5018703;28;20208;-64
2021/03/06 09:33:50;;;;;;;5.80;4.10;;;12.20;99.90;;;;;;5013998;28;20653;-64
2021/03/06 09:36:18;;;;;;;5.90;3.90;;;11.70;99.90;;;;;;5027208;28;20302;-64
2021/03/06 09:38:51;;;;;;;6.77;4.60;;;11.60;99.90;;;;;;5033318;28;20671;-64
2021/03/06 09:41:19;;;;;;;4.93;3.63;;;11.90;99.90;;;;;;5013377;28;20222;-64
2021/03/06 09:43:53;;;;;;;4.97;3.60;;;12.10;99.90;;;;;;5014032;28;20168;-64
2021/03/06 09:46:23;;;;;;;7.37;3.93;;;12.10;99.90;;;;;;5016480;28;20185;-64
2021/03/06 09:48:52;;;;;;;5.13;4.17;;;12.60;99.90;;;;;;5014079;28;20187;-64
2021/03/06 09:51:19;;;;;;;6.57;4.53;;;12.70;99.90;;;;;;5026022;28;20203;-64
2021/03/06 09:54:03;;;;;;;5.87;5.07;;;12.60;99.90;;;;;;5013958;28;20668;-64
2021/03/06 09:56:29;;;;;;;6.60;4.80;;;12.40;99.90;;;;;;5013601;28;20214;-64
2021/03/06 09:59:02;;;;;;;6.70;4.70;;;12.20;99.90;;;;;;5013597;28;20200;-63
2021/03/06 10:01:30;;;;;;;5.90;4.83;;;12.70;99.90;;;;;;5028256;28;20257;-64
2021/03/06 10:03:56;;;;;;;6.57;4.30;;;12.60;99.50;;;;;;5033354;28;20168;-64
2021/03/06 10:06:26;;;;;;;6.27;4.63;;;12.40;99.90;;;;;;5015745;28;20176;-64
2021/03/06 10:08:58;;;;;;;5.03;4.13;;;12.40;99.90;;;;;;5017460;28;20176;-64
2021/03/06 10:11:28;;;;;;;4.37;3.97;;;12.60;99.90;;;;;;5032786;28;20214;-64
2021/03/06 10:13:54;;;;;;;7.20;4.67;;;12.80;99.90;;;;;;5029342;28;20172;-64
2021/03/06 10:16:21;;;;;;;4.77;4.10;;;13.10;99.90;;;;;;5012614;28;20180;-64
2021/03/06 10:18:47;;;;;;;5.17;4.03;;;13.40;99.90;;;;;;5015365;28;20699;-64
2021/03/06 10:21:22;;;;;;;4.77;4.27;;;13.70;99.70;;;;;;5032435;28;20219;-64
2021/03/06 10:23:51;;;;;;;4.93;3.93;;;13.80;99.10;;;;;;5031492;28;20318;-64
2021/03/06 10:26:26;;;;;;;7.37;4.57;;;13.30;97.00;;;;;;5013138;28;20173;-64
2021/03/06 10:29:14;;;;;;;7.77;4.77;;;12.90;98.30;;;;;;5014289;28;20178;-64
2021/03/06 10:31:40;;;;;;;8.37;5.27;;;12.70;97.40;;;;;;5014880;28;20703;-64
2021/03/06 10:34:23;;;;;;;7.10;4.33;;;12.40;98.20;;;;;;5013979;28;20176;-64
2021/03/06 10:37:07;;;;;;;6.20;4.70;;;12.40;98.10;;;;;;5026978;28;20540;-64
2021/03/06 10:39:33;;;;;;;5.43;4.10;;;12.40;96.10;;;;;;5019393;28;20179;-64
2021/03/06 10:41:59;;;;;;;4.63;3.63;;;12.80;97.20;;;;;;5012323;28;20219;-64
2021/03/06 10:44:39;;;;;;;4.03;3.60;;;13.10;95.30;;;;;;5024315;28;20180;-64
2021/03/06 10:47:04;;;;;;;5.53;4.57;;;13.50;95.90;;;;;;5032510;28;20175;-64
2021/03/06 10:49:41;;;;;;;6.63;4.10;;;13.90;95.50;;;;;;5020737;28;20214;-65
2021/03/06 10:52:16;;;;;;;6.67;4.70;;;13.80;95.00;;;;;;5012314;28;20206;-64
2021/03/06 10:54:49;;;;;;;6.63;4.27;;;14.10;95.10;;;;;;5025051;28;20201;-64
2021/03/06 10:57:15;;;;;;;5.27;3.87;;;14.30;95.20;;;;;;5032521;28;20178;-64
2021/03/06 10:59:40;;;;;;;6.20;4.23;;;14.50;95.30;;;;;;5020653;28;20184;-63
2021/03/06 11:02:06;;;;;;;5.50;4.37;;;14.50;92.50;;;;;;5011809;28;20192;-64
2021/03/06 11:04:37;;;;;;;5.97;4.13;;;14.00;91.60;;;;;;5022198;28;20580;-64
2021/03/06 11:07:08;;;;;;;6.57;4.97;;;13.30;91.20;;;;;;5032017;28;20229;-64
2021/03/06 11:09:38;;;;;;;4.90;4.37;;;12.80;91.50;;;;;;5015102;28;20257;-64
2021/03/06 11:12:16;;;;;;;4.97;3.73;;;12.40;91.10;;;;;;5012110;28;20188;-64
2021/03/06 11:14:42;;;;;;;5.80;4.17;;;12.00;90.50;;;;;;5029742;28;20180;-64
2021/03/06 11:17:13;;;;;;;7.00;4.93;;;11.70;90.40;;;;;;5032015;28;20180;-64
2021/03/06 11:19:38;;;;;;;10.87;4.50;;;11.50;86.40;;;;;;5015551;28;20176;-64
2021/03/06 11:22:04;;;;;;;5.27;4.10;;;11.50;90.10;;;;;;5011880;28;20195;-64
2021/03/06 11:24:30;;;;;;;4.47;3.60;;;10.90;90.00;;;;;;5026532;28;20221;-64
2021/03/06 11:26:57;;;;;;;5.00;3.80;;;10.90;86.80;;;;;;5031729;28;20209;-64
2021/03/06 11:29:23;;;;;;;6.07;4.10;;;11.10;87.50;;;;;;5018914;28;20184;-64
2021/03/06 11:31:48;;;;;;;4.70;4.03;;;11.10;86.10;;;;;;5011708;28;20707;-64
2021/03/06 11:34:14;;;;;;;4.83;3.70;;;11.10;88.50;;;;;;5030282;28;20180;-64
2021/03/06 11:36:39;;;;;;;5.37;3.57;;;11.40;89.30;;;;;;5020842;28;20253;-64
2021/03/06 11:39:05;;;;;;;4.53;3.47;;;11.60;86.10;;;;;;5011842;28;20263;-64
2021/03/06 11:41:32;;;;;;;8.23;3.80;;;11.90;87.80;;;;;;5020186;28;20218;-64
2021/03/06 11:43:57;;;;;;;4.40;3.47;;;11.80;88.60;;;;;;5031484;28;20171;-64
2021/03/06 11:46:23;;;;;;;6.07;4.10;;;11.70;90.30;;;;;;5024396;28;20184;-64
2021/03/06 11:48:49;;;;;;;5.57;3.40;;;11.90;90.20;;;;;;5011920;28;20171;-64
2021/03/06 11:51:14;;;;;;;4.77;3.80;;;11.90;89.60;;;;;;5030579;28;20261;-64
2021/03/06 11:53:40;;;;;;;5.97;4.40;;;12.30;89.10;;;;;;5031496;28;20171;-64
2021/03/06 11:56:05;;;;;;;4.93;4.13;;;12.30;89.00;;;;;;5013352;28;20184;-64
2021/03/06 11:58:31;;;;;;;6.37;3.80;;;11.60;88.00;;;;;;5011710;28;20176;-64
2021/03/06 12:00:57;;;;;;;4.37;3.97;;;11.60;88.60;;;;;;5027100;28;20215;-64
2021/03/06 12:03:22;;;;;;;4.23;3.83;;;12.00;87.20;;;;;;5030908;28;20178;-64
2021/03/06 12:05:48;;;;;;;4.70;3.90;;;12.40;90.70;;;;;;5029795;28;20262;-64
2021/03/06 12:08:13;;;;;;;5.70;4.33;;;12.40;88.20;;;;;;5031432;28;20229;-64
2021/03/06 12:10:39;;;;;;;6.90;4.27;;;12.70;88.50;;;;;;5027723;28;20179;-64
2021/03/06 12:13:05;;;;;;;6.37;4.47;;;12.80;88.40;;;;;;5031141;28;20585;-64
2021/03/06 12:15:30;;;;;;;5.43;4.37;;;13.20;89.40;;;;;;5031293;28;20544;-64
2021/03/06 12:17:56;;;;;;;5.57;3.63;;;13.20;87.80;;;;;;5031214;28;20233;-64
2021/03/06 12:20:22;;;;;;;11.80;3.77;;;13.10;88.30;;;;;;5016205;28;20286;-64
2021/03/06 12:22:48;;;;;;;4.57;3.73;;;13.20;89.90;;;;;;5011602;28;20188;-64
2021/03/06 12:25:15;;;;;;;3.73;3.33;;;13.50;85.60;;;;;;5024032;28;20183;-64
2021/03/06 12:27:42;;;;;;;5.37;3.97;;;13.10;83.90;;;;;;5031238;28;20173;-64
2021/03/06 12:30:14;;;;;;;3.90;3.50;;;13.20;88.10;;;;;;5019092;28;20217;-64
2021/03/06 12:32:41;;;;;;;4.80;3.80;;;13.40;85.20;;;;;;5011146;28;20744;-64
2021/03/06 12:35:08;;;;;;;8.73;4.00;;;13.30;82.30;;;;;;5012498;28;20184;-64
2021/03/06 12:37:34;;;;;;;5.07;3.90;;;13.40;86.10;;;;;;5011540;28;20577;-64
2021/03/06 12:40:00;;;;;;;4.40;3.80;;;13.60;84.10;;;;;;5023569;28;20196;-64
2021/03/06 12:42:26;;;;;;;5.77;4.17;;;14.20;85.90;;;;;;5031055;28;20191;-64
2021/03/06 12:44:51;;;;;;;4.57;3.93;;;14.40;86.50;;;;;;5012583;28;20231;-64
2021/03/06 12:47:17;;;;;;;6.53;3.70;;;14.40;83.80;;;;;;5011248;28;20172;-64